sensor_id;sensor_type;location;lat;lon;timestamp;P1;durP1;ratioP1;P2;durP2;ratioP2
6205;SDS011;3136;48.788;9.772;2023-05-29T00:00:19;8.07;;;4.80;;
6205;SDS011;3136;48.788;9.772;2023-05-29T00:02:46;8.70;;;4.93;;
6205;SDS011;3136;48.788;9.772;2023-05-29T00:05:12;7.43;;;4.80;;
6205;SDS011;3136;48.788;9.772;2023-05-29T00:07:39;7.70;;;5.13;;
6205;SDS011;3136;48.788;9.772;2023-05-29T00:10:05;9.27;;;4.97;;
6205;SDS011;3136;48.788;9.772;2023-05-29T00:12:32;6.00;;;4.43;;
6205;SDS011;3136;48.788;9.772;2023-05-29T00:14:58;8.40;;;4.77;;
6205;SDS011;3136;48.788;9.772;2023-05-29T00:17:25;8.53;;;4.90;;
6205;SDS011;3136;48.788;9.772;2023-05-29T00:19:51;10.30;;;4.93;;
6205;SDS011;3136;48.788;9.772;2023-05-29T00:22:17;7.53;;;4.77;;
6205;SDS011;3136;48.788;9.772;2023-05-29T00:24:43;11.07;;;4.87;;
6205;SDS011;3136;48.788;9.772;2023-05-29T00:27:09;10.63;;;5.00;;
6205;SDS011;3136;48.788;9.772;2023-05-29T00:29:35;7.60;;;5.33;;
6205;SDS011;3136;48.788;9.772;2023-05-29T00:32:03;8.20;;;5.20;;
6205;SDS011;3136;48.788;9.772;2023-05-29T00:34:29;8.70;;;5.20;;
6205;SDS011;3136;48.788;9.772;2023-05-29T00:36:54;8.83;;;4.90;;
6205;SDS011;3136;48.788;9.772;2023-05-29T00:39:20;9.50;;;5.37;;
6205;SDS011;3136;48.788;9.772;2023-05-29T00:41:47;8.87;;;5.23;;
6205;SDS011;3136;48.788;9.772;2023-05-29T00:44:19;9.33;;;4.97;;
6205;SDS011;3136;48.788;9.772;2023-05-29T00:46:46;8.80;;;5.20;;
6205;SDS011;3136;48.788;9.772;2023-05-29T00:49:12;9.63;;;4.57;;
6205;SDS011;3136;48.788;9.772;2023-05-29T00:51:38;8.33;;;4.70;;
6205;SDS011;3136;48.788;9.772;2023-05-29T00:54:06;8.97;;;4.87;;
6205;SDS011;3136;48.788;9.772;2023-05-29T00:56:33;8.10;;;5.00;;
6205;SDS011;3136;48.788;9.772;2023-05-29T00:59:00;9.60;;;5.07;;
6205;SDS011;3136;48.788;9.772;2023-05-29T01:01:26;8.73;;;5.10;;
6205;SDS011;3136;48.788;9.772;2023-05-29T01:03:52;7.90;;;5.20;;
6205;SDS011;3136;48.788;9.772;2023-05-29T01:06:20;7.70;;;5.83;;
6205;SDS011;3136;48.788;9.772;2023-05-29T01:08:46;7.30;;;5.30;;
6205;SDS011;3136;48.788;9.772;2023-05-29T01:14:29;9.47;;;5.47;;
6205;SDS011;3136;48.788;9.772;2023-05-29T01:17:04;8.77;;;4.97;;
6205;SDS011;3136;48.788;9.772;2023-05-29T01:19:45;7.90;;;4.90;;
6205;SDS011;3136;48.788;9.772;2023-05-29T01:28:44;6.23;;;5.37;;
6205;SDS011;3136;48.788;9.772;2023-05-29T01:31:14;11.03;;;5.17;;
6205;SDS011;3136;48.788;9.772;2023-05-29T01:33:46;9.63;;;5.60;;
6205;SDS011;3136;48.788;9.772;2023-05-29T01:36:20;7.53;;;5.30;;
6205;SDS011;3136;48.788;9.772;2023-05-29T01:38:46;9.30;;;5.30;;
6205;SDS011;3136;48.788;9.772;2023-05-29T01:41:13;11.37;;;5.63;;
6205;SDS011;3136;48.788;9.772;2023-05-29T01:43:40;10.10;;;4.93;;
6205;SDS011;3136;48.788;9.772;2023-05-29T01:46:06;8.70;;;5.27;;
6205;SDS011;3136;48.788;9.772;2023-05-29T01:48:31;7.97;;;5.50;;
6205;SDS011;3136;48.788;9.772;2023-05-29T01:50:57;8.73;;;4.90;;
6205;SDS011;3136;48.788;9.772;2023-05-29T01:53:23;8.03;;;5.73;;
6205;SDS011;3136;48.788;9.772;2023-05-29T01:55:50;11.30;;;5.50;;
6205;SDS011;3136;48.788;9.772;2023-05-29T01:58:16;8.43;;;5.30;;
6205;SDS011;3136;48.788;9.772;2023-05-29T02:00:42;9.43;;;5.67;;
6205;SDS011;3136;48.788;9.772;2023-05-29T02:03:08;9.83;;;5.43;;
6205;SDS011;3136;48.788;9.772;2023-05-29T02:05:33;9.40;;;5.47;;
6205;SDS011;3136;48.788;9.772;2023-05-29T02:07:59;7.07;;;4.93;;
6205;SDS011;3136;48.788;9.772;2023-05-29T02:10:24;9.03;;;5.63;;
6205;SDS011;3136;48.788;9.772;2023-05-29T02:12:51;8.10;;;5.07;;
6205;SDS011;3136;48.788;9.772;2023-05-29T02:15:16;8.10;;;5.37;;
6205;SDS011;3136;48.788;9.772;2023-05-29T02:17:42;6.53;;;4.93;;
6205;SDS011;3136;48.788;9.772;2023-05-29T02:20:07;10.90;;;5.63;;
6205;SDS011;3136;48.788;9.772;2023-05-29T02:22:34;7.60;;;5.50;;
6205;SDS011;3136;48.788;9.772;2023-05-29T02:25:00;7.93;;;5.03;;
6205;SDS011;3136;48.788;9.772;2023-05-29T02:27:25;8.80;;;5.27;;
6205;SDS011;3136;48.788;9.772;2023-05-29T02:29:51;7.70;;;5.60;;
6205;SDS011;3136;48.788;9.772;2023-05-29T02:32:16;10.17;;;6.30;;
6205;SDS011;3136;48.788;9.772;2023-05-29T02:34:42;7.83;;;5.80;;
6205;SDS011;3136;48.788;9.772;2023-05-29T02:37:08;8.47;;;5.30;;
6205;SDS011;3136;48.788;9.772;2023-05-29T02:39:33;8.07;;;5.63;;
6205;SDS011;3136;48.788;9.772;2023-05-29T02:41:59;7.37;;;5.30;;
6205;SDS011;3136;48.788;9.772;2023-05-29T02:44:24;8.50;;;5.50;;
6205;SDS011;3136;48.788;9.772;2023-05-29T02:46:50;8.87;;;5.13;;
6205;SDS011;3136;48.788;9.772;2023-05-29T02:49:15;10.40;;;5.43;;
6205;SDS011;3136;48.788;9.772;2023-05-29T02:51:41;7.53;;;4.97;;
6205;SDS011;3136;48.788;9.772;2023-05-29T02:54:06;6.47;;;5.20;;
6205;SDS011;3136;48.788;9.772;2023-05-29T02:56:32;8.47;;;5.50;;
6205;SDS011;3136;48.788;9.772;2023-05-29T02:58:57;7.87;;;5.00;;
6205;SDS011;3136;48.788;9.772;2023-05-29T03:01:23;8.67;;;5.17;;
6205;SDS011;3136;48.788;9.772;2023-05-29T03:03:48;7.60;;;5.23;;
6205;SDS011;3136;48.788;9.772;2023-05-29T03:06:14;6.60;;;5.00;;
6205;SDS011;3136;48.788;9.772;2023-05-29T03:08:41;7.27;;;5.33;;
6205;SDS011;3136;48.788;9.772;2023-05-29T03:11:09;9.93;;;5.33;;
6205;SDS011;3136;48.788;9.772;2023-05-29T03:13:36;8.90;;;5.10;;
6205;SDS011;3136;48.788;9.772;2023-05-29T03:16:04;8.00;;;5.33;;
6205;SDS011;3136;48.788;9.772;2023-05-29T03:18:30;7.90;;;5.30;;
6205;SDS011;3136;48.788;9.772;2023-05-29T03:20:56;8.40;;;5.60;;
6205;SDS011;3136;48.788;9.772;2023-05-29T03:23:21;7.83;;;4.70;;
6205;SDS011;3136;48.788;9.772;2023-05-29T03:25:47;6.63;;;4.77;;
6205;SDS011;3136;48.788;9.772;2023-05-29T03:28:13;8.77;;;5.57;;
6205;SDS011;3136;48.788;9.772;2023-05-29T03:30:38;6.93;;;4.87;;
6205;SDS011;3136;48.788;9.772;2023-05-29T03:33:04;8.10;;;5.10;;
6205;SDS011;3136;48.788;9.772;2023-05-29T03:35:30;10.47;;;4.93;;
6205;SDS011;3136;48.788;9.772;2023-05-29T03:37:56;8.60;;;5.03;;
6205;SDS011;3136;48.788;9.772;2023-05-29T03:40:21;8.70;;;4.93;;
6205;SDS011;3136;48.788;9.772;2023-05-29T03:42:47;7.47;;;5.00;;
6205;SDS011;3136;48.788;9.772;2023-05-29T03:45:12;8.70;;;5.07;;
6205;SDS011;3136;48.788;9.772;2023-05-29T03:47:38;10.63;;;5.50;;
6205;SDS011;3136;48.788;9.772;2023-05-29T03:50:03;9.20;;;5.50;;
6205;SDS011;3136;48.788;9.772;2023-05-29T03:52:29;8.20;;;4.80;;
6205;SDS011;3136;48.788;9.772;2023-05-29T03:54:55;5.87;;;4.83;;
6205;SDS011;3136;48.788;9.772;2023-05-29T03:57:20;8.70;;;4.70;;
6205;SDS011;3136;48.788;9.772;2023-05-29T03:59:46;9.77;;;4.70;;
6205;SDS011;3136;48.788;9.772;2023-05-29T04:02:12;7.63;;;5.07;;
6205;SDS011;3136;48.788;9.772;2023-05-29T04:04:37;7.57;;;4.80;;
6205;SDS011;3136;48.788;9.772;2023-05-29T04:07:04;7.53;;;5.30;;
6205;SDS011;3136;48.788;9.772;2023-05-29T04:09:31;6.60;;;4.90;;
6205;SDS011;3136;48.788;9.772;2023-05-29T04:11:58;8.10;;;5.13;;
6205;SDS011;3136;48.788;9.772;2023-05-29T04:14:24;8.87;;;5.20;;
6205;SDS011;3136;48.788;9.772;2023-05-29T04:16:50;8.30;;;5.43;;
6205;SDS011;3136;48.788;9.772;2023-05-29T04:19:15;10.50;;;5.30;;
6205;SDS011;3136;48.788;9.772;2023-05-29T04:21:41;7.87;;;4.93;;
6205;SDS011;3136;48.788;9.772;2023-05-29T04:24:07;8.63;;;5.07;;
6205;SDS011;3136;48.788;9.772;2023-05-29T04:26:33;6.83;;;5.23;;
6205;SDS011;3136;48.788;9.772;2023-05-29T04:28:58;8.53;;;5.33;;
6205;SDS011;3136;48.788;9.772;2023-05-29T04:31:27;7.03;;;4.57;;
6205;SDS011;3136;48.788;9.772;2023-05-29T04:33:53;7.93;;;4.77;;
6205;SDS011;3136;48.788;9.772;2023-05-29T04:36:25;6.67;;;4.87;;
6205;SDS011;3136;48.788;9.772;2023-05-29T04:38:54;8.20;;;4.60;;
6205;SDS011;3136;48.788;9.772;2023-05-29T04:41:20;8.13;;;4.90;;
6205;SDS011;3136;48.788;9.772;2023-05-29T04:43:48;9.23;;;4.90;;
6205;SDS011;3136;48.788;9.772;2023-05-29T04:46:16;7.83;;;4.63;;
6205;SDS011;3136;48.788;9.772;2023-05-29T04:48:42;7.23;;;4.87;;
6205;SDS011;3136;48.788;9.772;2023-05-29T04:51:08;8.50;;;5.20;;
6205;SDS011;3136;48.788;9.772;2023-05-29T04:53:38;10.57;;;5.00;;
6205;SDS011;3136;48.788;9.772;2023-05-29T04:56:05;5.97;;;4.60;;
6205;SDS011;3136;48.788;9.772;2023-05-29T04:58:30;7.47;;;5.17;;
6205;SDS011;3136;48.788;9.772;2023-05-29T05:00:56;6.60;;;5.20;;
6205;SDS011;3136;48.788;9.772;2023-05-29T05:03:23;7.17;;;4.70;;
6205;SDS011;3136;48.788;9.772;2023-05-29T05:05:50;6.57;;;4.60;;
6205;SDS011;3136;48.788;9.772;2023-05-29T05:08:16;7.47;;;4.83;;
6205;SDS011;3136;48.788;9.772;2023-05-29T05:10:42;6.70;;;4.80;;
6205;SDS011;3136;48.788;9.772;2023-05-29T05:13:08;8.47;;;5.00;;
6205;SDS011;3136;48.788;9.772;2023-05-29T05:15:33;6.03;;;4.80;;
6205;SDS011;3136;48.788;9.772;2023-05-29T05:17:59;6.10;;;4.67;;
6205;SDS011;3136;48.788;9.772;2023-05-29T05:20:25;6.20;;;4.70;;
6205;SDS011;3136;48.788;9.772;2023-05-29T05:22:50;6.53;;;4.70;;
6205;SDS011;3136;48.788;9.772;2023-05-29T05:25:16;9.00;;;5.30;;
6205;SDS011;3136;48.788;9.772;2023-05-29T05:27:42;6.83;;;5.00;;
6205;SDS011;3136;48.788;9.772;2023-05-29T05:30:08;7.20;;;5.00;;
6205;SDS011;3136;48.788;9.772;2023-05-29T05:32:34;7.90;;;5.03;;
6205;SDS011;3136;48.788;9.772;2023-05-29T05:35:00;6.30;;;5.13;;
6205;SDS011;3136;48.788;9.772;2023-05-29T05:37:25;7.40;;;4.50;;
6205;SDS011;3136;48.788;9.772;2023-05-29T05:39:51;9.60;;;4.97;;
6205;SDS011;3136;48.788;9.772;2023-05-29T05:42:18;8.43;;;4.77;;
6205;SDS011;3136;48.788;9.772;2023-05-29T05:44:44;5.50;;;4.43;;
6205;SDS011;3136;48.788;9.772;2023-05-29T05:47:10;6.03;;;4.77;;
6205;SDS011;3136;48.788;9.772;2023-05-29T05:49:36;7.57;;;4.53;;
6205;SDS011;3136;48.788;9.772;2023-05-29T05:52:01;6.93;;;4.77;;
6205;SDS011;3136;48.788;9.772;2023-05-29T05:54:27;5.50;;;4.60;;
6205;SDS011;3136;48.788;9.772;2023-05-29T05:56:52;7.57;;;4.87;;
6205;SDS011;3136;48.788;9.772;2023-05-29T05:59:18;5.97;;;4.23;;
6205;SDS011;3136;48.788;9.772;2023-05-29T06:01:44;8.03;;;4.83;;
6205;SDS011;3136;48.788;9.772;2023-05-29T06:04:09;9.20;;;4.80;;
6205;SDS011;3136;48.788;9.772;2023-05-29T06:06:35;7.07;;;4.83;;
6205;SDS011;3136;48.788;9.772;2023-05-29T06:09:00;8.00;;;5.07;;
6205;SDS011;3136;48.788;9.772;2023-05-29T06:11:26;7.93;;;4.50;;
6205;SDS011;3136;48.788;9.772;2023-05-29T06:13:52;7.20;;;4.47;;
6205;SDS011;3136;48.788;9.772;2023-05-29T06:16:17;4.97;;;4.20;;
6205;SDS011;3136;48.788;9.772;2023-05-29T06:18:43;5.43;;;4.10;;
6205;SDS011;3136;48.788;9.772;2023-05-29T06:21:12;7.80;;;4.30;;
6205;SDS011;3136;48.788;9.772;2023-05-29T06:23:38;6.67;;;4.53;;
6205;SDS011;3136;48.788;9.772;2023-05-29T06:26:04;6.93;;;4.50;;
6205;SDS011;3136;48.788;9.772;2023-05-29T06:28:29;6.07;;;3.90;;
6205;SDS011;3136;48.788;9.772;2023-05-29T06:30:55;5.13;;;4.10;;
6205;SDS011;3136;48.788;9.772;2023-05-29T06:33:21;7.80;;;4.33;;
6205;SDS011;3136;48.788;9.772;2023-05-29T06:35:47;9.13;;;4.40;;
6205;SDS011;3136;48.788;9.772;2023-05-29T06:38:13;9.27;;;4.60;;
6205;SDS011;3136;48.788;9.772;2023-05-29T06:40:39;7.33;;;4.00;;
6205;SDS011;3136;48.788;9.772;2023-05-29T06:43:05;5.80;;;4.10;;
6205;SDS011;3136;48.788;9.772;2023-05-29T06:45:30;8.67;;;4.23;;
6205;SDS011;3136;48.788;9.772;2023-05-29T06:47:56;5.40;;;3.50;;
6205;SDS011;3136;48.788;9.772;2023-05-29T06:50:22;7.17;;;4.10;;
6205;SDS011;3136;48.788;9.772;2023-05-29T06:52:47;6.27;;;4.30;;
6205;SDS011;3136;48.788;9.772;2023-05-29T06:55:13;6.97;;;4.13;;
6205;SDS011;3136;48.788;9.772;2023-05-29T06:57:38;6.10;;;4.13;;
6205;SDS011;3136;48.788;9.772;2023-05-29T07:00:05;4.90;;;3.90;;
6205;SDS011;3136;48.788;9.772;2023-05-29T07:02:31;5.73;;;4.10;;
6205;SDS011;3136;48.788;9.772;2023-05-29T07:04:57;6.60;;;3.73;;
6205;SDS011;3136;48.788;9.772;2023-05-29T07:07:22;8.87;;;3.90;;
6205;SDS011;3136;48.788;9.772;2023-05-29T07:09:48;7.20;;;3.97;;
6205;SDS011;3136;48.788;9.772;2023-05-29T07:12:14;7.47;;;4.03;;
6205;SDS011;3136;48.788;9.772;2023-05-29T07:14:39;5.37;;;3.90;;
6205;SDS011;3136;48.788;9.772;2023-05-29T07:17:05;6.07;;;3.90;;
6205;SDS011;3136;48.788;9.772;2023-05-29T07:19:31;7.10;;;3.80;;
6205;SDS011;3136;48.788;9.772;2023-05-29T07:21:58;8.47;;;3.87;;
6205;SDS011;3136;48.788;9.772;2023-05-29T07:24:24;5.87;;;3.53;;
6205;SDS011;3136;48.788;9.772;2023-05-29T07:26:50;9.03;;;4.00;;
6205;SDS011;3136;48.788;9.772;2023-05-29T07:29:16;5.43;;;3.30;;
6205;SDS011;3136;48.788;9.772;2023-05-29T07:31:43;8.63;;;4.00;;
6205;SDS011;3136;48.788;9.772;2023-05-29T07:34:09;7.37;;;3.63;;
6205;SDS011;3136;48.788;9.772;2023-05-29T07:36:35;7.30;;;4.00;;
6205;SDS011;3136;48.788;9.772;2023-05-29T07:39:01;11.17;;;4.03;;
6205;SDS011;3136;48.788;9.772;2023-05-29T07:41:27;8.93;;;3.90;;
6205;SDS011;3136;48.788;9.772;2023-05-29T07:43:53;6.50;;;4.23;;
6205;SDS011;3136;48.788;9.772;2023-05-29T07:46:20;5.20;;;3.80;;
6205;SDS011;3136;48.788;9.772;2023-05-29T07:48:46;7.80;;;3.80;;
6205;SDS011;3136;48.788;9.772;2023-05-29T07:51:11;5.80;;;3.43;;
6205;SDS011;3136;48.788;9.772;2023-05-29T07:53:38;7.47;;;3.97;;
6205;SDS011;3136;48.788;9.772;2023-05-29T07:56:03;7.50;;;4.17;;
6205;SDS011;3136;48.788;9.772;2023-05-29T07:58:29;6.10;;;3.83;;
6205;SDS011;3136;48.788;9.772;2023-05-29T08:00:54;5.57;;;3.50;;
6205;SDS011;3136;48.788;9.772;2023-05-29T08:03:20;10.27;;;3.70;;
6205;SDS011;3136;48.788;9.772;2023-05-29T08:05:46;5.80;;;3.40;;
6205;SDS011;3136;48.788;9.772;2023-05-29T08:08:11;6.67;;;3.77;;
6205;SDS011;3136;48.788;9.772;2023-05-29T08:10:38;5.77;;;3.40;;
6205;SDS011;3136;48.788;9.772;2023-05-29T08:13:04;6.33;;;4.00;;
6205;SDS011;3136;48.788;9.772;2023-05-29T08:15:29;7.83;;;3.80;;
6205;SDS011;3136;48.788;9.772;2023-05-29T08:17:56;5.37;;;3.40;;
6205;SDS011;3136;48.788;9.772;2023-05-29T08:20:22;5.23;;;3.43;;
6205;SDS011;3136;48.788;9.772;2023-05-29T08:22:47;8.00;;;3.90;;
6205;SDS011;3136;48.788;9.772;2023-05-29T08:25:13;5.93;;;3.70;;
6205;SDS011;3136;48.788;9.772;2023-05-29T08:27:39;5.63;;;3.73;;
6205;SDS011;3136;48.788;9.772;2023-05-29T08:30:04;8.53;;;3.40;;
6205;SDS011;3136;48.788;9.772;2023-05-29T08:32:30;7.33;;;3.90;;
6205;SDS011;3136;48.788;9.772;2023-05-29T08:34:56;7.13;;;3.40;;
6205;SDS011;3136;48.788;9.772;2023-05-29T08:37:22;6.00;;;3.80;;
6205;SDS011;3136;48.788;9.772;2023-05-29T08:39:47;5.83;;;3.43;;
6205;SDS011;3136;48.788;9.772;2023-05-29T08:42:14;9.70;;;3.50;;
6205;SDS011;3136;48.788;9.772;2023-05-29T08:44:47;7.10;;;3.50;;
6205;SDS011;3136;48.788;9.772;2023-05-29T08:47:14;6.23;;;3.50;;
6205;SDS011;3136;48.788;9.772;2023-05-29T08:49:45;4.87;;;3.40;;
6205;SDS011;3136;48.788;9.772;2023-05-29T08:52:18;5.57;;;3.37;;
6205;SDS011;3136;48.788;9.772;2023-05-29T08:54:45;4.77;;;3.10;;
6205;SDS011;3136;48.788;9.772;2023-05-29T08:57:11;5.23;;;3.30;;
6205;SDS011;3136;48.788;9.772;2023-05-29T08:59:38;5.60;;;3.23;;
6205;SDS011;3136;48.788;9.772;2023-05-29T09:02:06;4.97;;;3.37;;
6205;SDS011;3136;48.788;9.772;2023-05-29T09:04:32;7.13;;;3.60;;
6205;SDS011;3136;48.788;9.772;2023-05-29T09:06:58;5.53;;;3.23;;
6205;SDS011;3136;48.788;9.772;2023-05-29T09:09:25;5.80;;;3.10;;
6205;SDS011;3136;48.788;9.772;2023-05-29T09:11:54;5.73;;;3.30;;
6205;SDS011;3136;48.788;9.772;2023-05-29T09:17:03;5.77;;;3.00;;
6205;SDS011;3136;48.788;9.772;2023-05-29T09:19:29;8.20;;;3.17;;
6205;SDS011;3136;48.788;9.772;2023-05-29T09:22:04;6.73;;;3.40;;
6205;SDS011;3136;48.788;9.772;2023-05-29T09:24:35;7.87;;;3.00;;
6205;SDS011;3136;48.788;9.772;2023-05-29T09:27:02;5.90;;;3.10;;
6205;SDS011;3136;48.788;9.772;2023-05-29T09:29:43;8.07;;;3.10;;
6205;SDS011;3136;48.788;9.772;2023-05-29T09:32:15;6.57;;;3.00;;
6205;SDS011;3136;48.788;9.772;2023-05-29T09:34:42;6.90;;;3.20;;
6205;SDS011;3136;48.788;9.772;2023-05-29T09:37:09;6.83;;;3.20;;
6205;SDS011;3136;48.788;9.772;2023-05-29T09:39:46;5.17;;;3.00;;
6205;SDS011;3136;48.788;9.772;2023-05-29T09:42:16;3.47;;;2.77;;
6205;SDS011;3136;48.788;9.772;2023-05-29T09:44:44;4.10;;;3.03;;
6205;SDS011;3136;48.788;9.772;2023-05-29T09:47:16;4.60;;;3.03;;
6205;SDS011;3136;48.788;9.772;2023-05-29T09:49:42;4.57;;;2.97;;
6205;SDS011;3136;48.788;9.772;2023-05-29T09:52:10;6.97;;;3.00;;
6205;SDS011;3136;48.788;9.772;2023-05-29T09:54:39;5.80;;;3.30;;
6205;SDS011;3136;48.788;9.772;2023-05-29T09:57:06;5.30;;;3.00;;
6205;SDS011;3136;48.788;9.772;2023-05-29T09:59:32;6.37;;;3.57;;
6205;SDS011;3136;48.788;9.772;2023-05-29T10:02:03;6.50;;;3.10;;
6205;SDS011;3136;48.788;9.772;2023-05-29T10:04:30;4.57;;;3.03;;
6205;SDS011;3136;48.788;9.772;2023-05-29T10:07:00;4.37;;;2.63;;
6205;SDS011;3136;48.788;9.772;2023-05-29T10:09:32;5.30;;;2.90;;
6205;SDS011;3136;48.788;9.772;2023-05-29T10:12:00;4.70;;;2.83;;
6205;SDS011;3136;48.788;9.772;2023-05-29T10:14:29;4.27;;;2.80;;
6205;SDS011;3136;48.788;9.772;2023-05-29T10:16:56;5.43;;;2.93;;
6205;SDS011;3136;48.788;9.772;2023-05-29T10:19:27;5.83;;;2.90;;
6205;SDS011;3136;48.788;9.772;2023-05-29T10:21:56;3.73;;;2.70;;
6205;SDS011;3136;48.788;9.772;2023-05-29T10:24:22;5.87;;;2.97;;
6205;SDS011;3136;48.788;9.772;2023-05-29T10:26:49;4.13;;;2.87;;
6205;SDS011;3136;48.788;9.772;2023-05-29T10:31:52;4.30;;;2.40;;
6205;SDS011;3136;48.788;9.772;2023-05-29T10:37:37;4.37;;;2.73;;
6205;SDS011;3136;48.788;9.772;2023-05-29T10:40:09;9.07;;;3.07;;
6205;SDS011;3136;48.788;9.772;2023-05-29T10:45:09;5.43;;;2.90;;
6205;SDS011;3136;48.788;9.772;2023-05-29T10:47:37;4.23;;;2.77;;
6205;SDS011;3136;48.788;9.772;2023-05-29T10:50:03;3.43;;;2.73;;
6205;SDS011;3136;48.788;9.772;2023-05-29T10:52:33;3.57;;;2.40;;
6205;SDS011;3136;48.788;9.772;2023-05-29T10:54:59;3.90;;;2.77;;
6205;SDS011;3136;48.788;9.772;2023-05-29T10:57:28;6.22;;;2.60;;
6205;SDS011;3136;48.788;9.772;2023-05-29T11:00:15;4.38;;;2.67;;
6205;SDS011;3136;48.788;9.772;2023-05-29T11:02:43;3.28;;;2.70;;
6205;SDS011;3136;48.788;9.772;2023-05-29T11:05:20;4.00;;;2.67;;
6205;SDS011;3136;48.788;9.772;2023-05-29T11:07:50;3.55;;;2.75;;
6205;SDS011;3136;48.788;9.772;2023-05-29T11:10:18;3.85;;;2.75;;
6205;SDS011;3136;48.788;9.772;2023-05-29T11:13:07;3.63;;;2.60;;
6205;SDS011;3136;48.788;9.772;2023-05-29T11:15:33;5.20;;;3.10;;
6205;SDS011;3136;48.788;9.772;2023-05-29T11:18:08;6.95;;;3.00;;
6205;SDS011;3136;48.788;9.772;2023-05-29T11:20:37;3.97;;;2.50;;
6205;SDS011;3136;48.788;9.772;2023-05-29T11:23:14;4.43;;;2.83;;
6205;SDS011;3136;48.788;9.772;2023-05-29T11:25:43;4.47;;;3.00;;
6205;SDS011;3136;48.788;9.772;2023-05-29T11:28:10;4.20;;;3.00;;
6205;SDS011;3136;48.788;9.772;2023-05-29T11:33:24;3.05;;;2.53;;
6205;SDS011;3136;48.788;9.772;2023-05-29T11:35:55;3.97;;;2.90;;
6205;SDS011;3136;48.788;9.772;2023-05-29T11:38:24;4.07;;;2.83;;
6205;SDS011;3136;48.788;9.772;2023-05-29T11:40:51;4.63;;;2.92;;
6205;SDS011;3136;48.788;9.772;2023-05-29T11:43:21;5.40;;;2.97;;
6205;SDS011;3136;48.788;9.772;2023-05-29T11:45:47;5.47;;;3.00;;
6205;SDS011;3136;48.788;9.772;2023-05-29T11:48:13;9.60;;;3.13;;
6205;SDS011;3136;48.788;9.772;2023-05-29T11:50:38;4.05;;;2.70;;
6205;SDS011;3136;48.788;9.772;2023-05-29T11:53:05;3.67;;;2.80;;
6205;SDS011;3136;48.788;9.772;2023-05-29T11:55:35;4.90;;;2.63;;
6205;SDS011;3136;48.788;9.772;2023-05-29T11:58:01;3.13;;;2.78;;
6205;SDS011;3136;48.788;9.772;2023-05-29T12:00:30;3.88;;;2.67;;
6205;SDS011;3136;48.788;9.772;2023-05-29T12:02:58;3.17;;;2.70;;
6205;SDS011;3136;48.788;9.772;2023-05-29T12:05:28;4.18;;;3.00;;
6205;SDS011;3136;48.788;9.772;2023-05-29T12:07:54;3.83;;;2.83;;
6205;SDS011;3136;48.788;9.772;2023-05-29T12:10:26;3.45;;;2.90;;
6205;SDS011;3136;48.788;9.772;2023-05-29T12:12:56;6.72;;;3.08;;
6205;SDS011;3136;48.788;9.772;2023-05-29T12:15:23;3.80;;;2.90;;
6205;SDS011;3136;48.788;9.772;2023-05-29T12:17:49;3.67;;;3.13;;
6205;SDS011;3136;48.788;9.772;2023-05-29T12:20:16;6.55;;;3.10;;
6205;SDS011;3136;48.788;9.772;2023-05-29T12:22:43;3.40;;;3.00;;
6205;SDS011;3136;48.788;9.772;2023-05-29T12:25:13;3.53;;;3.00;;
6205;SDS011;3136;48.788;9.772;2023-05-29T12:27:45;3.22;;;2.80;;
6205;SDS011;3136;48.788;9.772;2023-05-29T12:30:12;4.97;;;2.80;;
6205;SDS011;3136;48.788;9.772;2023-05-29T12:32:49;3.20;;;2.85;;
6205;SDS011;3136;48.788;9.772;2023-05-29T12:35:17;4.78;;;3.40;;
6205;SDS011;3136;48.788;9.772;2023-05-29T12:37:55;4.60;;;3.10;;
6205;SDS011;3136;48.788;9.772;2023-05-29T12:40:27;3.47;;;3.17;;
6205;SDS011;3136;48.788;9.772;2023-05-29T12:42:55;3.67;;;3.00;;
6205;SDS011;3136;48.788;9.772;2023-05-29T12:45:24;6.88;;;3.65;;
6205;SDS011;3136;48.788;9.772;2023-05-29T12:50:40;4.22;;;3.10;;
6205;SDS011;3136;48.788;9.772;2023-05-29T12:53:06;4.10;;;3.30;;
6205;SDS011;3136;48.788;9.772;2023-05-29T12:55:36;5.57;;;3.63;;
6205;SDS011;3136;48.788;9.772;2023-05-29T12:58:06;4.10;;;3.10;;
6205;SDS011;3136;48.788;9.772;2023-05-29T13:00:36;3.92;;;3.20;;
6205;SDS011;3136;48.788;9.772;2023-05-29T13:03:06;3.35;;;2.97;;
6205;SDS011;3136;48.788;9.772;2023-05-29T13:05:32;3.38;;;3.00;;
6205;SDS011;3136;48.788;9.772;2023-05-29T13:07:58;7.15;;;3.28;;
6205;SDS011;3136;48.788;9.772;2023-05-29T13:10:24;3.83;;;3.28;;
6205;SDS011;3136;48.788;9.772;2023-05-29T13:12:51;4.43;;;3.10;;
6205;SDS011;3136;48.788;9.772;2023-05-29T13:15:20;3.72;;;2.95;;
6205;SDS011;3136;48.788;9.772;2023-05-29T13:17:47;6.43;;;3.05;;
6205;SDS011;3136;48.788;9.772;2023-05-29T13:20:13;3.35;;;3.03;;
6205;SDS011;3136;48.788;9.772;2023-05-29T13:22:39;6.50;;;3.28;;
6205;SDS011;3136;48.788;9.772;2023-05-29T13:25:06;4.47;;;3.03;;
6205;SDS011;3136;48.788;9.772;2023-05-29T13:27:34;4.45;;;2.90;;
6205;SDS011;3136;48.788;9.772;2023-05-29T13:30:04;5.68;;;2.90;;
6205;SDS011;3136;48.788;9.772;2023-05-29T13:32:30;9.70;;;3.17;;
6205;SDS011;3136;48.788;9.772;2023-05-29T13:34:56;3.05;;;2.75;;
6205;SDS011;3136;48.788;9.772;2023-05-29T13:39:47;3.13;;;2.60;;
6205;SDS011;3136;48.788;9.772;2023-05-29T13:42:13;3.22;;;2.92;;
6205;SDS011;3136;48.788;9.772;2023-05-29T13:44:39;2.60;;;2.40;;
6205;SDS011;3136;48.788;9.772;2023-05-29T13:47:05;3.53;;;2.95;;
6205;SDS011;3136;48.788;9.772;2023-05-29T13:49:35;3.47;;;2.97;;
6205;SDS011;3136;48.788;9.772;2023-05-29T13:52:01;3.75;;;2.75;;
6205;SDS011;3136;48.788;9.772;2023-05-29T13:54:27;3.83;;;2.85;;
6205;SDS011;3136;48.788;9.772;2023-05-29T13:57:00;3.53;;;3.05;;
6205;SDS011;3136;48.788;9.772;2023-05-29T13:59:26;3.38;;;2.78;;
6205;SDS011;3136;48.788;9.772;2023-05-29T14:01:52;3.88;;;2.92;;
6205;SDS011;3136;48.788;9.772;2023-05-29T14:04:17;3.25;;;2.90;;
6205;SDS011;3136;48.788;9.772;2023-05-29T14:06:43;3.50;;;3.05;;
6205;SDS011;3136;48.788;9.772;2023-05-29T14:09:09;3.35;;;3.05;;
6205;SDS011;3136;48.788;9.772;2023-05-29T14:11:35;3.65;;;2.90;;
6205;SDS011;3136;48.788;9.772;2023-05-29T14:14:02;3.28;;;2.97;;
6205;SDS011;3136;48.788;9.772;2023-05-29T14:16:28;6.00;;;3.00;;
6205;SDS011;3136;48.788;9.772;2023-05-29T14:18:54;3.28;;;2.92;;
6205;SDS011;3136;48.788;9.772;2023-05-29T14:21:19;6.43;;;3.22;;
6205;SDS011;3136;48.788;9.772;2023-05-29T14:23:45;5.00;;;3.67;;
6205;SDS011;3136;48.788;9.772;2023-05-29T14:26:11;4.53;;;3.13;;
6205;SDS011;3136;48.788;9.772;2023-05-29T14:28:37;4.30;;;3.10;;
6205;SDS011;3136;48.788;9.772;2023-05-29T14:33:31;7.03;;;3.20;;
6205;SDS011;3136;48.788;9.772;2023-05-29T14:35:57;3.50;;;2.83;;
6205;SDS011;3136;48.788;9.772;2023-05-29T14:38:23;4.93;;;3.40;;
6205;SDS011;3136;48.788;9.772;2023-05-29T14:40:49;3.40;;;3.00;;
6205;SDS011;3136;48.788;9.772;2023-05-29T14:43:14;5.30;;;3.47;;
6205;SDS011;3136;48.788;9.772;2023-05-29T14:45:40;6.70;;;3.43;;
6205;SDS011;3136;48.788;9.772;2023-05-29T14:48:05;6.37;;;3.30;;
6205;SDS011;3136;48.788;9.772;2023-05-29T14:50:31;4.60;;;3.40;;
6205;SDS011;3136;48.788;9.772;2023-05-29T14:52:57;4.13;;;3.20;;
6205;SDS011;3136;48.788;9.772;2023-05-29T14:55:22;3.70;;;3.07;;
6205;SDS011;3136;48.788;9.772;2023-05-29T14:57:48;3.37;;;3.00;;
6205;SDS011;3136;48.788;9.772;2023-05-29T15:00:14;3.63;;;2.80;;
6205;SDS011;3136;48.788;9.772;2023-05-29T15:02:39;5.93;;;3.13;;
6205;SDS011;3136;48.788;9.772;2023-05-29T15:05:05;5.83;;;2.93;;
6205;SDS011;3136;48.788;9.772;2023-05-29T15:07:32;5.37;;;3.53;;
6205;SDS011;3136;48.788;9.772;2023-05-29T15:10:01;4.57;;;2.90;;
6205;SDS011;3136;48.788;9.772;2023-05-29T15:12:27;4.13;;;2.97;;
6205;SDS011;3136;48.788;9.772;2023-05-29T15:14:53;4.27;;;3.37;;
6205;SDS011;3136;48.788;9.772;2023-05-29T15:17:19;6.67;;;2.80;;
6205;SDS011;3136;48.788;9.772;2023-05-29T15:19:45;3.57;;;2.80;;
6205;SDS011;3136;48.788;9.772;2023-05-29T15:22:10;4.07;;;3.17;;
6205;SDS011;3136;48.788;9.772;2023-05-29T15:24:36;6.63;;;3.07;;
6205;SDS011;3136;48.788;9.772;2023-05-29T15:27:02;3.97;;;3.07;;
6205;SDS011;3136;48.788;9.772;2023-05-29T15:29:32;4.10;;;3.00;;
6205;SDS011;3136;48.788;9.772;2023-05-29T15:32:00;6.50;;;3.30;;
6205;SDS011;3136;48.788;9.772;2023-05-29T15:34:26;4.50;;;3.20;;
6205;SDS011;3136;48.788;9.772;2023-05-29T15:36:51;4.03;;;3.00;;
6205;SDS011;3136;48.788;9.772;2023-05-29T15:39:17;4.20;;;3.10;;
6205;SDS011;3136;48.788;9.772;2023-05-29T15:41:43;6.43;;;3.40;;
6205;SDS011;3136;48.788;9.772;2023-05-29T15:44:08;4.43;;;3.23;;